Portada
METAR-TAF:

METAR-TAF

Aeroports :

Dutchess County Airport

Poughkeepsie, Nova York, Estats Units d'Amèrica

latitud: 41-37-36N, longitud: 073-53-03W, altitud: 50 m

Observació

L'informe es va fer fa 38 minuts, a les 17:53 UTC
Vent 6 kt del Sud-Oest
Temperatura 32°C
Humitat 38%
Pressió 1016 hPa
Visibilitat: 16.1 km
Cel clar

METAR: KPOU 161753Z 23006KT 10SM CLR 32/16 A3001 RMK AO2 SLP156 T03220161 10322 20200 58016

Hora: 14:31 (18:31 UTC)

Pronòstic

L'informe es va fer fa 29 minuts, a les 18:02 UTC
Pronòstic vàlid del 16 a les 18 UTC al 17 a les 18 UTC
Vent 7 kt del Sud-Oest
Visibilitat: 10 km
Cel clar
A partir de les 16 a les 2200 UTC
Vent 6 kt del Sud-Oest
Visibilitat: 10 km
Cel ennuvolat a una alçada de 7000 ft
Probabilitat 30%
l' 17 a les 14 UTC al 17 a les 18 UTC
Visibilitat: 6.4 km
Cel cobert a una alçada de 4000 ft, Cumulonimbus.
tempesta, pluja

TAF: KPOU 161802Z 1618/1718 23007KT P6SM SKC FM162200 23006KT P6SM BKN070 PROB30 1714/1718 4SM -TSRA OVC040CB

Observacions i pronòstics meteorològics de més de 4000 aeroports (METAR i TAF).

Les estacions disponibles són els punts grocs i vermells al mapa.

Posi el ratolí al punt desitjat per veure el nom de l'estació.

Feu clic per veure les observacions i els pronòstics meteorològics.

Per canviar el mapa: feu clic els botons verds amb una creu de color negre per apropar; al botó verd amb un guió per allunyar la imatge; o en les fletxes verdes per a mapes adjacents.


METAR-TAF: